Time,TemperatureF,DewpointF,PressureIn,WindDirection,WindDirectionDegrees,WindSpeedMPH,WindSpeedGustMPH,Humidity,HourlyPrecipIn,Conditions,Clouds,dailyrainin,SoftwareType,DateUTC
2013-06-23 00:02:00,54.0,30.0,-100.00,East,96,6.0,21.0,39,-99.99,,,-99.99,,2013-06-23 08:02:00,
2013-06-23 00:11:00,53.0,30.0,-100.00,East,100,6.0,23.0,41,-99.99,,,-99.99,,2013-06-23 08:11:00,
2013-06-23 00:22:00,53.0,30.0,-100.00,East,100,6.0,23.0,41,-99.99,,,-99.99,,2013-06-23 08:22:00,
2013-06-23 00:33:00,53.0,30.0,-100.00,East,100,6.0,23.0,41,-99.99,,,-99.99,,2013-06-23 08:33:00,
2013-06-23 00:42:00,53.0,30.0,-100.00,East,100,6.0,23.0,41,-99.99,,,-99.99,,2013-06-23 08:42:00,
2013-06-23 00:53:00,53.0,31.0,-100.00,SE,124,4.0,11.0,43,-99.99,,,-99.99,,2013-06-23 08:53:00,
2013-06-23 01:02:00,53.0,31.0,-100.00,SE,124,4.0,11.0,43,-99.99,,,-99.99,,2013-06-23 09:02:00,
2013-06-23 01:12:00,53.0,29.0,-100.00,East,100,3.0,9.0,40,-99.99,,,-99.99,,2013-06-23 09:12:00,
2013-06-23 01:22:00,53.0,29.0,-100.00,East,100,3.0,9.0,40,-99.99,,,-99.99,,2013-06-23 09:22:00,
2013-06-23 01:34:00,53.0,29.0,-100.00,East,100,3.0,9.0,40,-99.99,,,-99.99,,2013-06-23 09:34:00,
2013-06-23 01:43:00,53.0,29.0,-100.00,East,94,4.0,10.0,39,-99.99,,,-99.99,,2013-06-23 09:43:00,
2013-06-23 01:53:00,53.0,29.0,-100.00,East,94,4.0,10.0,39,-99.99,,,-99.99,,2013-06-23 09:53:00,
2013-06-23 02:02:00,53.0,29.0,-100.00,East,94,4.0,10.0,39,-99.99,,,-99.99,,2013-06-23 10:02:00,
2013-06-23 02:11:00,53.0,29.0,-100.00,East,94,4.0,10.0,39,-99.99,,,-99.99,,2013-06-23 10:11:00,
2013-06-23 02:34:00,53.0,29.0,-100.00,SE,125,4.0,10.0,39,-99.99,,,-99.99,,2013-06-23 10:34:00,
2013-06-23 02:43:00,53.0,29.0,-100.00,SSE,159,5.0,14.0,40,-99.99,,,-99.99,,2013-06-23 10:43:00,
2013-06-23 02:53:00,53.0,30.0,-100.00,SE,130,1.0,8.0,41,-99.99,,,-99.99,,2013-06-23 10:53:00,
2013-06-23 03:01:00,53.0,30.0,-100.00,SE,130,1.0,8.0,41,-99.99,,,-99.99,,2013-06-23 11:01:00,
2013-06-23 03:11:00,52.0,30.0,-100.00,SE,125,1.0,11.0,43,-99.99,,,-99.99,,2013-06-23 11:11:00,
2013-06-23 03:22:00,52.0,31.0,-100.00,WNW,297,1.0,6.0,45,-99.99,,,-99.99,,2013-06-23 11:22:00,
2013-06-23 03:33:00,52.0,31.0,-100.00,WNW,297,1.0,6.0,45,-99.99,,,-99.99,,2013-06-23 11:33:00,
2013-06-23 03:43:00,51.0,32.0,-100.00,SSE,166,1.0,6.0,48,-99.99,,,-99.99,,2013-06-23 11:43:00,
2013-06-23 04:33:00,52.0,32.0,-100.00,WSW,251,6.0,11.0,46,-99.99,,,-99.99,,2013-06-23 12:33:00,
2013-06-23 04:43:00,52.0,32.0,-100.00,WSW,251,6.0,11.0,46,-99.99,,,-99.99,,2013-06-23 12:43:00,
2013-06-23 04:53:00,52.0,32.0,-100.00,WSW,251,6.0,11.0,46,-99.99,,,-99.99,,2013-06-23 12:53:00,
2013-06-23 05:01:00,52.0,32.0,-100.00,WSW,251,6.0,11.0,46,-99.99,,,-99.99,,2013-06-23 13:01:00,
2013-06-23 06:44:00,51.0,34.0,-100.00,SSE,151,5.0,12.0,53,-99.99,,,-99.99,,2013-06-23 14:44:00,
2013-06-23 06:52:00,51.0,34.0,-100.00,SSE,151,5.0,12.0,53,-99.99,,,-99.99,,2013-06-23 14:52:00,
2013-06-23 07:05:00,49.0,39.0,-100.00,SSW,201,4.0,6.0,67,-99.99,,,-99.99,,2013-06-23 15:05:00,
2013-06-23 07:11:00,49.0,39.0,-100.00,SSW,201,4.0,6.0,67,-99.99,,,-99.99,,2013-06-23 15:11:00,
2013-06-23 07:34:00,49.0,39.0,-100.00,South,190,4.0,8.0,68,-99.99,,,-99.99,,2013-06-23 15:34:00,
2013-06-23 07:43:00,50.0,39.0,-100.00,SSE,149,2.0,8.0,67,-99.99,,,-99.99,,2013-06-23 15:43:00,
2013-06-23 07:52:00,50.0,39.0,-100.00,SSE,149,2.0,8.0,67,-99.99,,,-99.99,,2013-06-23 15:52:00,
2013-06-23 08:05:00,50.0,39.0,-100.00,NNW,345,2.0,10.0,66,-99.99,,,-99.99,,2013-06-23 16:05:00,
2013-06-23 08:11:00,50.0,38.0,-100.00,ESE,117,1.0,4.0,63,-99.99,,,-99.99,,2013-06-23 16:11:00,
2013-06-23 08:35:00,50.0,38.0,-100.00,SW,233,0.0,2.0,63,-99.99,,,-99.99,,2013-06-23 16:35:00,
2013-06-23 08:42:00,50.0,38.0,-100.00,SW,233,0.0,2.0,63,-99.99,,,-99.99,,2013-06-23 16:42:00,
2013-06-23 08:52:00,51.0,38.0,-100.00,NE,38,0.0,4.0,62,-99.99,,,-99.99,,2013-06-23 16:52:00,
2013-06-23 09:03:00,51.0,38.0,-100.00,NE,38,0.0,4.0,62,-99.99,,,-99.99,,2013-06-23 17:03:00,
2013-06-23 09:11:00,52.0,39.0,-100.00,South,171,0.0,5.0,60,-99.99,,,-99.99,,2013-06-23 17:11:00,
2013-06-23 09:52:00,52.0,39.0,-100.00,South,180,2.0,12.0,62,-99.99,,,-99.99,,2013-06-23 17:52:00,
2013-06-23 10:01:00,52.0,39.0,-100.00,South,180,2.0,12.0,62,-99.99,,,-99.99,,2013-06-23 18:01:00,
2013-06-23 10:11:00,52.0,39.0,-100.00,South,180,2.0,12.0,62,-99.99,,,-99.99,,2013-06-23 18:11:00,
2013-06-23 10:21:00,52.0,39.0,-100.00,SE,141,4.0,13.0,61,-99.99,,,-99.99,,2013-06-23 18:21:00,
2013-06-23 10:22:00,52.0,39.0,-100.00,South,180,2.0,12.0,62,-99.99,,,-99.99,,2013-06-23 18:22:00,
2013-06-23 10:34:00,51.0,38.0,-100.00,ESE,114,5.0,14.0,61,-99.99,,,-99.99,,2013-06-23 18:34:00,
2013-06-23 10:43:00,52.0,39.0,-100.00,SE,141,4.0,13.0,61,-99.99,,,-99.99,,2013-06-23 18:43:00,
2013-06-23 10:53:00,52.0,39.0,-100.00,SE,141,4.0,13.0,61,-99.99,,,-99.99,,2013-06-23 18:53:00,
2013-06-23 11:01:00,52.0,39.0,-100.00,SE,141,4.0,13.0,61,-99.99,,,-99.99,,2013-06-23 19:01:00,
2013-06-23 11:11:00,52.0,39.0,-100.00,SE,141,4.0,13.0,61,-99.99,,,-99.99,,2013-06-23 19:11:00,
2013-06-23 11:32:00,53.0,40.0,-100.00,SW,214,1.0,6.0,61,-99.99,,,-99.99,,2013-06-23 19:32:00,
2013-06-23 11:43:00,54.0,40.0,-100.00,SW,232,4.0,10.0,59,-99.99,,,-99.99,,2013-06-23 19:43:00,
2013-06-23 11:53:00,54.0,40.0,-100.00,SW,232,4.0,10.0,59,-99.99,,,-99.99,,2013-06-23 19:53:00,
2013-06-23 12:01:00,54.0,40.0,-100.00,SW,232,4.0,10.0,59,-99.99,,,-99.99,,2013-06-23 20:01:00,
2013-06-23 12:11:00,54.0,42.0,-100.00,SW,233,3.0,8.0,63,-99.99,,,-99.99,,2013-06-23 20:11:00,
2013-06-23 12:33:00,55.0,40.0,-100.00,SSW,210,2.0,10.0,57,-99.99,,,-99.99,,2013-06-23 20:33:00,
2013-06-23 12:42:00,55.0,40.0,-100.00,SSW,210,2.0,10.0,57,-99.99,,,-99.99,,2013-06-23 20:42:00,
2013-06-23 12:52:00,55.0,40.0,-100.00,SSW,210,2.0,10.0,57,-99.99,,,-99.99,,2013-06-23 20:52:00,
2013-06-23 13:01:00,55.0,40.0,-100.00,SSW,210,2.0,10.0,57,-99.99,,,-99.99,,2013-06-23 21:01:00,
2013-06-23 13:22:00,57.0,42.0,-100.00,WSW,240,3.0,8.0,57,-99.99,,,-99.99,,2013-06-23 21:22:00,
2013-06-23 13:34:00,57.0,42.0,-100.00,WSW,240,3.0,8.0,57,-99.99,,,-99.99,,2013-06-23 21:34:00,
2013-06-23 13:44:00,57.0,42.0,-100.00,WSW,240,3.0,8.0,57,-99.99,,,-99.99,,2013-06-23 21:44:00,
2013-06-23 13:52:00,59.0,42.0,-100.00,ENE,60,1.0,8.0,53,-99.99,,,-99.99,,2013-06-23 21:52:00,
2013-06-23 14:01:00,59.0,42.0,-100.00,ENE,60,1.0,8.0,53,-99.99,,,-99.99,,2013-06-23 22:01:00,
2013-06-23 14:11:00,59.0,42.0,-100.00,ENE,60,1.0,8.0,53,-99.99,,,-99.99,,2013-06-23 22:11:00,
2013-06-23 14:22:00,57.0,41.0,-100.00,WSW,249,4.0,12.0,54,-99.99,,,-99.99,,2013-06-23 22:22:00,
2013-06-23 14:32:00,57.0,41.0,-100.00,WSW,249,4.0,12.0,54,-99.99,,,-99.99,,2013-06-23 22:32:00,
2013-06-23 14:43:00,57.0,41.0,-100.00,WSW,249,4.0,12.0,54,-99.99,,,-99.99,,2013-06-23 22:43:00,
2013-06-23 14:53:00,60.0,40.0,-100.00,North,3,2.0,8.0,48,-99.99,,,-99.99,,2013-06-23 22:53:00,
2013-06-23 15:01:00,60.0,40.0,-100.00,North,3,2.0,8.0,48,-99.99,,,-99.99,,2013-06-23 23:01:00,
2013-06-23 15:11:00,60.0,40.0,-100.00,North,3,2.0,8.0,48,-99.99,,,-99.99,,2013-06-23 23:11:00,
2013-06-23 15:22:00,60.0,40.0,-100.00,North,3,2.0,8.0,48,-99.99,,,-99.99,,2013-06-23 23:22:00,
2013-06-23 15:33:00,62.0,42.0,-100.00,North,6,4.0,10.0,48,-99.99,,,-99.99,,2013-06-23 23:33:00,
2013-06-23 15:44:00,62.0,42.0,-100.00,North,6,4.0,10.0,48,-99.99,,,-99.99,,2013-06-23 23:44:00,
2013-06-23 15:52:00,63.0,42.0,-100.00,North,4,2.0,13.0,47,-99.99,,,-99.99,,2013-06-23 23:52:00,
2013-06-23 16:01:00,63.0,42.0,-100.00,North,4,2.0,13.0,47,-99.99,,,-99.99,,2013-06-24 00:01:00,
2013-06-23 16:11:00,68.0,43.0,-100.00,SSW,199,1.0,10.0,40,-99.99,,,-99.99,,2013-06-24 00:11:00,
2013-06-23 16:33:00,67.0,42.0,-100.00,NNW,330,3.0,12.0,40,-99.99,,,-99.99,,2013-06-24 00:33:00,
2013-06-23 16:42:00,67.0,42.0,-100.00,NNW,330,3.0,12.0,40,-99.99,,,-99.99,,2013-06-24 00:42:00,
2013-06-23 16:52:00,67.0,42.0,-100.00,NNW,330,3.0,12.0,40,-99.99,,,-99.99,,2013-06-24 00:52:00,
2013-06-23 17:01:00,67.0,42.0,-100.00,NNW,330,3.0,12.0,40,-99.99,,,-99.99,,2013-06-24 01:01:00,
2013-06-23 17:21:00,64.0,42.0,-100.00,NNE,18,5.0,11.0,45,-99.99,,,-99.99,,2013-06-24 01:21:00,
2013-06-23 17:42:00,64.0,42.0,-100.00,NNE,18,5.0,11.0,45,-99.99,,,-99.99,,2013-06-24 01:42:00,
2013-06-23 17:53:00,64.0,42.0,-100.00,NNE,18,5.0,11.0,45,-99.99,,,-99.99,,2013-06-24 01:53:00,
2013-06-23 18:01:00,64.0,42.0,-100.00,NNE,18,5.0,11.0,45,-99.99,,,-99.99,,2013-06-24 02:01:00,
2013-06-23 18:11:00,64.0,42.0,-100.00,NNE,18,5.0,11.0,45,-99.99,,,-99.99,,2013-06-24 02:11:00,
2013-06-23 18:53:00,59.0,43.0,-100.00,North,3,2.0,8.0,55,-99.99,,,-99.99,,2013-06-24 02:53:00,
2013-06-23 19:01:00,59.0,43.0,-100.00,North,3,2.0,8.0,55,-99.99,,,-99.99,,2013-06-24 03:01:00,
2013-06-23 19:11:00,59.0,43.0,-100.00,North,3,2.0,8.0,55,-99.99,,,-99.99,,2013-06-24 03:11:00,
2013-06-23 19:22:00,59.0,43.0,-100.00,North,3,2.0,8.0,55,-99.99,,,-99.99,,2013-06-24 03:22:00,
2013-06-23 19:33:00,59.0,43.0,-100.00,NNE,23,5.0,10.0,56,-99.99,,,-99.99,,2013-06-24 03:33:00,
2013-06-23 19:43:00,59.0,43.0,-100.00,NNE,23,5.0,10.0,56,-99.99,,,-99.99,,2013-06-24 03:43:00,
2013-06-23 19:53:00,59.0,43.0,-100.00,NNE,23,5.0,10.0,56,-99.99,,,-99.99,,2013-06-24 03:53:00,
2013-06-23 20:01:00,59.0,43.0,-100.00,NNE,23,5.0,10.0,56,-99.99,,,-99.99,,2013-06-24 04:01:00,
2013-06-23 20:11:00,59.0,44.0,-100.00,NNE,23,2.0,5.0,57,-99.99,,,-99.99,,2013-06-24 04:11:00,
2013-06-23 20:22:00,59.0,44.0,-100.00,NNE,23,2.0,5.0,57,-99.99,,,-99.99,,2013-06-24 04:22:00,
2013-06-23 20:33:00,59.0,44.0,-100.00,NNE,23,2.0,5.0,57,-99.99,,,-99.99,,2013-06-24 04:33:00,
2013-06-23 21:02:00,60.0,43.0,-100.00,NW,312,0.0,3.0,54,-99.99,,,-99.99,,2013-06-24 05:02:00,
2013-06-23 21:12:00,60.0,43.0,-100.00,NW,312,0.0,3.0,54,-99.99,,,-99.99,,2013-06-24 05:12:00,
2013-06-23 21:22:00,60.0,43.0,-100.00,NW,312,0.0,3.0,54,-99.99,,,-99.99,,2013-06-24 05:22:00,
2013-06-23 21:34:00,60.0,43.0,-100.00,NW,312,0.0,3.0,54,-99.99,,,-99.99,,2013-06-24 05:34:00,
2013-06-23 21:43:00,59.0,45.0,-100.00,NNE,28,2.0,4.0,59,-99.99,,,-99.99,,2013-06-24 05:43:00,
2013-06-23 21:54:00,59.0,44.0,-100.00,NNE,27,2.0,4.0,58,-99.99,,,-99.99,,2013-06-24 05:54:00,
2013-06-23 22:12:00,57.0,44.0,-100.00,NE,50,3.0,5.0,62,-99.99,,,-99.99,,2013-06-24 06:12:00,
2013-06-23 22:21:00,56.0,43.0,-100.00,ENE,73,3.0,8.0,62,-99.99,,,-99.99,,2013-06-24 06:21:00,
2013-06-23 22:34:00,57.0,44.0,-100.00,ENE,76,3.0,5.0,61,-99.99,,,-99.99,,2013-06-24 06:34:00,
2013-06-23 22:43:00,56.0,43.0,-100.00,ENE,73,3.0,8.0,62,-99.99,,,-99.99,,2013-06-24 06:43:00,
2013-06-23 22:52:00,56.0,43.0,-100.00,ENE,73,3.0,8.0,62,-99.99,,,-99.99,,2013-06-24 06:52:00,
2013-06-23 23:02:00,56.0,43.0,-100.00,ENE,73,3.0,8.0,62,-99.99,,,-99.99,,2013-06-24 07:02:00,
2013-06-23 23:13:00,56.0,43.0,-100.00,ENE,73,3.0,8.0,62,-99.99,,,-99.99,,2013-06-24 07:13:00,
2013-06-23 23:37:00,56.0,41.0,-100.00,East,90,6.0,10.0,57,-99.99,,,-99.99,,2013-06-24 07:37:00,
2013-06-23 23:49:00,56.0,41.0,-100.00,East,90,6.0,10.0,57,-99.99,,,-99.99,,2013-06-24 07:49:00,
2013-06-23 23:55:00,56.0,41.0,-100.00,East,82,4.0,10.0,57,-99.99,,,-99.99,,2013-06-24 07:55:00,